Time;durP1;ratioP1;P1;durP2;ratioP2;P2;SDS_P1;SDS_P2;PMS_P1;PMS_P2;Temp;Humidity;BMP_temperature;BMP_pressure;BME280_temperature;BME280_humidity;BME280_pressure;Samples;Min_cycle;Max_cycle;Signal;HPM_P1;HPM_P2
2022/04/06 00:00:44;;;;;;;8.00;7.33;;;9.60;99.90;;;;;;5061378;28;20192;-67
2022/04/06 00:03:09;;;;;;;7.67;6.97;;;9.60;99.90;;;;;;5059961;28;20177;-67
2022/04/06 00:05:35;;;;;;;7.80;7.20;;;9.70;99.90;;;;;;5067206;28;20442;-67
2022/04/06 00:08:01;;;;;;;8.20;7.50;;;9.70;99.90;;;;;;5056538;28;20182;-67
2022/04/06 00:10:28;;;;;;;6.93;6.30;;;9.60;99.90;;;;;;5066143;28;20434;-67
2022/04/06 00:12:54;;;;;;;7.53;6.83;;;9.70;99.90;;;;;;5057624;28;20436;-67
2022/04/06 00:15:20;;;;;;;7.27;6.67;;;9.70;99.90;;;;;;5068543;28;20439;-66
2022/04/06 00:17:46;;;;;;;7.70;7.10;;;9.70;99.90;;;;;;5061553;28;20453;-66
2022/04/06 00:20:14;;;;;;;8.03;7.23;;;9.60;99.90;;;;;;5061952;28;20443;-67
2022/04/06 00:22:40;;;;;;;8.20;7.50;;;9.70;99.90;;;;;;5069802;28;20189;-67
2022/04/06 00:25:06;;;;;;;7.87;7.00;;;9.70;99.90;;;;;;5065966;28;20443;-67
2022/04/06 00:27:32;;;;;;;7.20;6.60;;;9.70;99.90;;;;;;5064284;28;20565;-67
2022/04/06 00:29:58;;;;;;;7.17;6.57;;;9.70;99.90;;;;;;5065817;28;20525;-67
2022/04/06 00:32:24;;;;;;;7.20;6.53;;;9.70;99.90;;;;;;5066748;28;20184;-67
2022/04/06 00:37:33;;;;;;;7.87;6.40;;;9.70;99.90;;;;;;5065408;28;20461;-67
2022/04/06 00:39:59;;;;;;;7.23;5.90;;;9.80;99.90;;;;;;5063873;28;20431;-67
2022/04/06 00:42:25;;;;;;;7.67;6.97;;;9.70;99.90;;;;;;5064019;28;20209;-67
2022/04/06 00:44:51;;;;;;;7.43;6.70;;;9.70;99.90;;;;;;5063808;28;20458;-67
2022/04/06 00:47:16;;;;;;;7.23;6.53;;;9.70;99.90;;;;;;5063087;28;20300;-67
2022/04/06 00:49:42;;;;;;;8.20;7.40;;;9.70;99.90;;;;;;5067604;28;20173;-67
2022/04/06 00:52:08;;;;;;;7.47;6.77;;;9.70;99.90;;;;;;5066948;28;20181;-67
2022/04/06 00:54:35;;;;;;;9.73;8.73;;;9.70;99.90;;;;;;5061551;28;20226;-67
2022/04/06 00:57:01;;;;;;;7.30;6.67;;;9.70;99.90;;;;;;5056953;28;20470;-67
2022/04/06 00:59:29;;;;;;;7.17;6.47;;;9.60;99.90;;;;;;5063962;28;20443;-66
2022/04/06 01:01:57;;;;;;;11.43;7.80;;;9.60;99.90;;;;;;5055612;28;20578;-66
2022/04/06 01:04:22;;;;;;;7.97;7.20;;;9.60;99.90;;;;;;5064836;28;20443;-66
2022/04/06 01:06:48;;;;;;;7.50;6.80;;;9.60;99.90;;;;;;5065643;28;20493;-66
2022/04/06 01:09:18;;;;;;;7.50;6.90;;;9.60;99.90;;;;;;5062424;28;20641;-67
2022/04/06 01:11:46;;;;;;;7.47;6.80;;;9.60;99.90;;;;;;5062321;28;20494;-67
2022/04/06 01:14:12;;;;;;;8.90;7.83;;;9.60;99.90;;;;;;5063478;28;20431;-67
2022/04/06 01:16:38;;;;;;;7.53;6.83;;;9.60;99.90;;;;;;5063440;28;20537;-67
2022/04/06 01:19:04;;;;;;;7.83;7.27;;;9.60;99.90;;;;;;5067651;28;20522;-67
2022/04/06 01:21:29;;;;;;;7.30;6.63;;;9.60;99.90;;;;;;5061658;28;20522;-67
2022/04/06 01:23:55;;;;;;;7.87;7.20;;;9.60;99.90;;;;;;5066313;28;20648;-66
2022/04/06 01:26:20;;;;;;;8.67;7.73;;;9.60;99.90;;;;;;5063299;28;20223;-67
2022/04/06 01:28:46;;;;;;;6.23;5.63;;;9.60;99.90;;;;;;5065491;28;20190;-67
2022/04/06 01:31:11;;;;;;;7.73;7.03;;;9.70;99.90;;;;;;5067078;28;20180;-67
2022/04/06 01:33:37;;;;;;;7.50;6.80;;;9.70;99.90;;;;;;5069396;28;20553;-66
2022/04/06 01:36:03;;;;;;;7.73;7.03;;;9.70;99.90;;;;;;5069295;28;20258;-66
2022/04/06 01:38:29;;;;;;;7.23;6.53;;;9.70;99.90;;;;;;5068093;28;20208;-66
2022/04/06 01:40:55;;;;;;;7.80;7.10;;;9.70;99.90;;;;;;5061104;28;20467;-66
2022/04/06 01:43:21;;;;;;;8.30;7.50;;;9.70;99.90;;;;;;5061177;28;20185;-67
2022/04/06 01:45:47;;;;;;;7.20;6.60;;;9.70;99.90;;;;;;5070782;28;20257;-67
2022/04/06 01:48:16;;;;;;;7.47;6.87;;;9.70;99.90;;;;;;5069852;28;20439;-70
2022/04/06 01:53:27;;;;;;;11.17;7.10;;;9.70;99.90;;;;;;5073006;28;20824;-65
2022/04/06 01:55:56;;;;;;;7.60;6.80;;;9.70;99.90;;;;;;5064597;28;20519;-67
2022/04/06 01:58:22;;;;;;;7.63;6.97;;;9.70;99.90;;;;;;5072631;28;20949;-66
2022/04/06 02:00:49;;;;;;;7.87;7.23;;;9.70;99.90;;;;;;5071035;28;20442;-66
2022/04/06 02:03:15;;;;;;;7.90;7.20;;;9.60;99.90;;;;;;5073424;28;20513;-69
2022/04/06 02:05:41;;;;;;;8.60;7.87;;;9.60;99.90;;;;;;5062379;28;20597;-66
2022/04/06 02:08:07;;;;;;;9.10;8.30;;;9.60;99.90;;;;;;5068751;28;20448;-66
2022/04/06 02:10:33;;;;;;;7.63;7.03;;;9.60;99.90;;;;;;5071249;28;20666;-66
2022/04/06 02:13:00;;;;;;;8.20;7.30;;;9.60;99.90;;;;;;5068565;28;20195;-66
2022/04/06 02:15:27;;;;;;;7.40;6.70;;;9.60;99.90;;;;;;5066149;28;20185;-66
2022/04/06 02:17:54;;;;;;;8.27;7.47;;;9.60;99.90;;;;;;5067410;28;20945;-66
2022/04/06 02:20:20;;;;;;;8.40;7.70;;;9.60;99.90;;;;;;5067045;28;20447;-66
2022/04/06 02:22:46;;;;;;;7.57;6.97;;;9.60;99.90;;;;;;5066891;28;20444;-66
2022/04/06 02:25:12;;;;;;;8.33;7.60;;;9.50;99.90;;;;;;5072762;28;20780;-66
2022/04/06 02:27:45;;;;;;;8.53;7.83;;;9.50;99.90;;;;;;5066351;28;20557;-68
2022/04/06 02:30:11;;;;;;;7.47;6.77;;;9.60;99.90;;;;;;5071649;28;20503;-66
2022/04/06 02:32:36;;;;;;;8.80;8.00;;;9.50;99.90;;;;;;5067812;28;20435;-66
2022/04/06 02:35:02;;;;;;;10.10;8.03;;;9.60;99.90;;;;;;5068937;28;20437;-68
2022/04/06 02:37:27;;;;;;;8.13;7.43;;;9.60;99.90;;;;;;5069596;28;20679;-66
2022/04/06 02:39:53;;;;;;;7.93;7.33;;;9.50;99.90;;;;;;5064065;28;20971;-67
2022/04/06 02:42:18;;;;;;;7.90;7.27;;;9.50;99.90;;;;;;5065776;28;20652;-66
2022/04/06 02:44:43;;;;;;;8.37;7.33;;;9.50;99.90;;;;;;5067083;28;20188;-67
2022/04/06 02:47:09;;;;;;;9.83;8.90;;;9.50;99.90;;;;;;5064380;28;20291;-66
2022/04/06 02:49:35;;;;;;;8.53;7.80;;;9.50;99.90;;;;;;5069149;28;20181;-66
2022/04/06 02:52:00;;;;;;;9.27;8.37;;;9.50;99.90;;;;;;5065976;28;20200;-66
2022/04/06 02:54:26;;;;;;;8.17;7.47;;;9.50;99.90;;;;;;5066313;28;20192;-67
2022/04/06 02:56:51;;;;;;;7.60;7.00;;;9.50;99.90;;;;;;5067864;28;20213;-66
2022/04/06 02:59:17;;;;;;;8.30;7.60;;;9.50;99.90;;;;;;5060261;28;20181;-66
2022/04/06 03:01:42;;;;;;;14.17;8.23;;;9.50;99.90;;;;;;5064462;28;20193;-67
2022/04/06 03:04:08;;;;;;;9.25;8.45;;;9.50;99.90;;;;;;5062638;28;20438;-66
2022/04/06 03:06:33;;;;;;;8.77;7.97;;;9.60;99.90;;;;;;5071776;28;20217;-66
2022/04/06 03:08:59;;;;;;;8.40;6.90;;;9.60;99.90;;;;;;5067068;28;20177;-67
2022/04/06 03:11:24;;;;;;;8.43;7.63;;;9.60;99.90;;;;;;5061639;28;20212;-66
2022/04/06 03:13:53;;;;;;;9.00;8.10;;;9.60;99.90;;;;;;5068311;28;20181;-66
2022/04/06 03:16:18;;;;;;;10.40;9.43;;;9.60;99.90;;;;;;5062627;28;20228;-68
2022/04/06 03:18:44;;;;;;;9.00;8.30;;;9.50;99.90;;;;;;5067341;28;20439;-66
2022/04/06 03:21:09;;;;;;;8.20;7.33;;;9.50;99.90;;;;;;5064866;28;20268;-67
2022/04/06 03:23:35;;;;;;;8.17;7.37;;;9.50;99.90;;;;;;5070218;28;20234;-66
2022/04/06 03:26:00;;;;;;;8.33;7.53;;;9.40;99.90;;;;;;5070603;28;20209;-66
2022/04/06 03:28:26;;;;;;;11.00;9.07;;;9.40;99.90;;;;;;5070913;28;20184;-66
2022/04/06 03:30:51;;;;;;;9.30;8.40;;;9.40;99.90;;;;;;5068181;28;20181;-66
2022/04/06 03:33:17;;;;;;;13.50;7.73;;;9.50;99.90;;;;;;5071831;28;20256;-66
2022/04/06 03:35:43;;;;;;;10.23;8.50;;;9.40;99.90;;;;;;5064620;28;20276;-66
2022/04/06 03:38:08;;;;;;;8.53;7.67;;;9.40;99.90;;;;;;5067884;28;20193;-70
2022/04/06 03:40:34;;;;;;;8.63;7.73;;;9.40;99.90;;;;;;5067529;28;20173;-66
2022/04/06 03:42:59;;;;;;;9.10;8.30;;;9.50;99.90;;;;;;5061895;28;20181;-65
2022/04/06 03:45:25;;;;;;;10.20;9.20;;;9.40;99.90;;;;;;5070721;28;20177;-65
2022/04/06 03:47:50;;;;;;;8.63;7.80;;;9.40;99.90;;;;;;5068496;28;20728;-65
2022/04/06 03:50:16;;;;;;;8.60;7.80;;;9.40;99.90;;;;;;5068138;28;20261;-65
2022/04/06 03:52:42;;;;;;;8.10;7.30;;;9.40;99.90;;;;;;5066531;28;20173;-65
2022/04/06 03:55:08;;;;;;;10.20;8.70;;;9.40;99.90;;;;;;5070111;28;20169;-64
2022/04/06 03:57:37;;;;;;;8.23;7.37;;;9.40;99.90;;;;;;5067250;28;20243;-65
2022/04/06 04:00:08;;;;;;;8.03;7.33;;;9.40;99.90;;;;;;5070868;28;20483;-66
2022/04/06 04:02:34;;;;;;;8.40;7.70;;;9.40;99.90;;;;;;5063342;28;20526;-66
2022/04/06 04:05:00;;;;;;;9.70;8.90;;;9.50;99.90;;;;;;5067470;28;20449;-68
2022/04/06 04:07:26;;;;;;;9.00;8.03;;;9.50;99.90;;;;;;5068353;28;20463;-66
2022/04/06 04:09:52;;;;;;;7.37;6.77;;;9.50;99.90;;;;;;5069183;28;20450;-67
2022/04/06 04:12:18;;;;;;;7.63;6.93;;;9.50;99.90;;;;;;5068212;28;20602;-64
2022/04/06 04:14:45;;;;;;;8.43;7.23;;;9.50;99.90;;;;;;5066629;28;20171;-65
2022/04/06 04:17:11;;;;;;;7.43;6.83;;;9.50;99.90;;;;;;5063010;28;20452;-66
2022/04/06 04:19:36;;;;;;;7.77;7.00;;;9.50;99.90;;;;;;5066681;28;20438;-65
2022/04/06 04:22:02;;;;;;;8.10;7.40;;;9.50;99.90;;;;;;5068172;28;20211;-65
2022/04/06 04:24:27;;;;;;;9.10;6.50;;;9.60;99.90;;;;;;5069492;28;20260;-66
2022/04/06 04:26:53;;;;;;;8.70;7.90;;;9.60;99.90;;;;;;5067394;28;20209;-65
2022/04/06 04:29:19;;;;;;;9.17;8.27;;;9.50;99.90;;;;;;5063939;28;20425;-65
2022/04/06 04:31:45;;;;;;;9.13;8.10;;;9.50;99.90;;;;;;5070987;28;20435;-66
2022/04/06 04:34:11;;;;;;;7.27;6.57;;;9.50;99.90;;;;;;5061559;28;20181;-68
2022/04/06 04:36:37;;;;;;;8.00;7.20;;;9.50;99.90;;;;;;5058271;28;20458;-66
2022/04/06 04:39:03;;;;;;;8.43;7.63;;;9.40;99.90;;;;;;5061650;28;20184;-66
2022/04/06 04:41:28;;;;;;;10.73;7.47;;;9.40;99.90;;;;;;5071205;28;20176;-67
2022/04/06 04:43:54;;;;;;;8.37;7.57;;;9.40;99.90;;;;;;5061607;28;20431;-66
2022/04/06 04:46:20;;;;;;;8.03;7.33;;;9.40;99.90;;;;;;5063551;28;20579;-66
2022/04/06 04:48:46;;;;;;;8.20;7.40;;;9.40;99.90;;;;;;5067545;28;20697;-66
2022/04/06 04:51:13;;;;;;;8.57;7.83;;;9.40;99.90;;;;;;5066786;28;20435;-66
2022/04/06 04:53:39;;;;;;;10.13;9.00;;;9.50;99.90;;;;;;5067805;28;20633;-69
2022/04/06 04:56:05;;;;;;;7.60;6.97;;;9.50;99.90;;;;;;5062653;28;20483;-66
2022/04/06 04:58:30;;;;;;;8.03;7.20;;;9.50;99.90;;;;;;5060910;28;20172;-65
2022/04/06 05:00:56;;;;;;;8.20;7.50;;;9.50;99.90;;;;;;5063733;28;20496;-67
2022/04/06 05:03:22;;;;;;;10.23;8.40;;;9.50;99.90;;;;;;5070068;28;20189;-65
2022/04/06 05:05:51;;;;;;;7.63;7.03;;;9.50;99.90;;;;;;5066650;28;20208;-66
2022/04/06 05:08:17;;;;;;;7.77;7.10;;;9.50;99.90;;;;;;5059530;28;20443;-66
2022/04/06 05:10:43;;;;;;;7.90;7.20;;;9.50;99.90;;;;;;5062669;28;20440;-66
2022/04/06 05:13:08;;;;;;;10.53;8.80;;;9.50;99.90;;;;;;5067427;28;20181;-66
2022/04/06 05:15:34;;;;;;;8.10;7.33;;;9.60;99.90;;;;;;5069543;28;20442;-66
2022/04/06 05:18:00;;;;;;;8.03;7.33;;;9.60;99.90;;;;;;5061693;28;20185;-65
2022/04/06 05:20:26;;;;;;;8.87;8.10;;;9.60;99.90;;;;;;5059946;28;20268;-68
2022/04/06 05:22:51;;;;;;;9.67;8.77;;;9.60;99.90;;;;;;5062381;28;20304;-66
2022/04/06 05:25:17;;;;;;;7.90;7.20;;;9.60;99.90;;;;;;5068850;28;20177;-66
2022/04/06 05:27:48;;;;;;;9.30;8.50;;;9.50;99.90;;;;;;5065040;28;20209;-66
2022/04/06 05:30:16;;;;;;;12.87;11.47;;;9.50;99.90;;;;;;5063842;28;20497;-65
2022/04/06 05:32:42;;;;;;;8.80;8.00;;;9.50;99.90;;;;;;5070416;28;20431;-66
2022/04/06 05:35:09;;;;;;;8.73;7.93;;;9.50;99.90;;;;;;5068251;28;20426;-65
2022/04/06 05:37:39;;;;;;;8.70;7.90;;;9.60;99.90;;;;;;5070897;28;20469;-65
2022/04/06 05:40:07;;;;;;;8.43;7.73;;;9.60;99.90;;;;;;5070854;28;20630;-66
2022/04/06 05:42:33;;;;;;;9.23;8.30;;;9.60;99.90;;;;;;5071702;28;20500;-66
2022/04/06 05:44:59;;;;;;;9.20;8.30;;;9.60;99.90;;;;;;5069261;28;20441;-66
2022/04/06 05:47:25;;;;;;;8.87;8.07;;;9.70;99.90;;;;;;5066869;28;20823;-67
2022/04/06 05:49:50;;;;;;;9.97;9.00;;;9.70;99.90;;;;;;5058831;28;20173;-66
2022/04/06 05:52:16;;;;;;;8.90;8.03;;;9.80;99.90;;;;;;5064470;28;20444;-66
2022/04/06 05:54:41;;;;;;;10.23;8.60;;;9.80;99.90;;;;;;5065678;28;20593;-66
2022/04/06 05:57:07;;;;;;;11.30;8.97;;;9.80;99.90;;;;;;5065548;28;20238;-67
2022/04/06 05:59:32;;;;;;;9.70;7.90;;;9.80;99.90;;;;;;5059535;28;20188;-65
2022/04/06 06:01:58;;;;;;;9.10;8.30;;;9.80;99.90;;;;;;5067580;28;20272;-65
2022/04/06 06:04:24;;;;;;;8.40;7.60;;;9.80;99.90;;;;;;5064438;28;20667;-66
2022/04/06 06:06:49;;;;;;;9.67;8.87;;;9.80;99.90;;;;;;5064837;28;20204;-65
2022/04/06 06:09:15;;;;;;;10.17;9.17;;;9.80;99.90;;;;;;5069288;28;20176;-65
2022/04/06 06:11:41;;;;;;;10.00;8.07;;;9.90;99.90;;;;;;5068397;28;20165;-65
2022/04/06 06:14:07;;;;;;;9.00;6.90;;;9.90;99.90;;;;;;5056083;28;20174;-65
2022/04/06 06:16:33;;;;;;;9.10;8.07;;;9.90;99.90;;;;;;5065227;28;20456;-65
2022/04/06 06:18:59;;;;;;;10.70;9.50;;;10.00;99.90;;;;;;5069523;28;20441;-68
2022/04/06 06:21:26;;;;;;;13.87;9.00;;;10.00;99.90;;;;;;5067795;28;20172;-66
2022/04/06 06:23:55;;;;;;;11.00;9.93;;;10.00;99.90;;;;;;5068147;28;20660;-65
2022/04/06 06:26:21;;;;;;;8.93;7.97;;;10.00;99.90;;;;;;5063332;28;20554;-67
2022/04/06 06:28:46;;;;;;;9.60;8.70;;;10.10;99.90;;;;;;5071501;28;20522;-65
2022/04/06 06:31:12;;;;;;;9.43;8.63;;;10.10;99.90;;;;;;5068826;28;20187;-66
2022/04/06 06:33:37;;;;;;;8.90;8.10;;;10.10;99.90;;;;;;5068994;28;20548;-65
2022/04/06 06:36:03;;;;;;;10.77;8.03;;;10.10;99.90;;;;;;5067291;28;20201;-64
2022/04/06 06:38:29;;;;;;;8.07;7.27;;;10.10;99.90;;;;;;5062589;28;20273;-65
2022/04/06 06:40:54;;;;;;;8.03;7.33;;;10.10;99.90;;;;;;5062085;28;20169;-67
2022/04/06 06:43:20;;;;;;;14.90;8.87;;;10.00;99.90;;;;;;5048484;28;20192;-66
2022/04/06 06:45:46;;;;;;;9.97;8.33;;;10.10;99.90;;;;;;5045719;28;20205;-65
2022/04/06 06:48:11;;;;;;;7.97;7.27;;;10.10;99.90;;;;;;5069151;28;20178;-68
2022/04/06 06:50:37;;;;;;;9.03;8.23;;;10.20;99.90;;;;;;5063820;28;20272;-65
2022/04/06 06:53:02;;;;;;;7.80;7.07;;;10.20;99.90;;;;;;5066115;28;20195;-71
2022/04/06 06:55:28;;;;;;;8.47;7.67;;;10.20;99.90;;;;;;5027613;28;1035193;-67
2022/04/06 06:57:54;;;;;;;7.53;6.83;;;10.30;99.90;;;;;;5062832;28;20181;-67
2022/04/06 07:00:19;;;;;;;8.17;7.57;;;10.30;99.90;;;;;;5061461;28;20557;-67
2022/04/06 07:02:45;;;;;;;7.50;6.80;;;10.20;99.90;;;;;;5066957;28;20261;-67
2022/04/06 07:05:11;;;;;;;6.97;6.40;;;10.30;99.90;;;;;;5068900;28;20181;-68
2022/04/06 07:07:56;;;;;;;7.70;7.00;;;10.30;99.90;;;;;;5071725;28;20212;-68
2022/04/06 07:10:22;;;;;;;8.37;7.27;;;10.40;99.90;;;;;;5071327;28;20518;-69
2022/04/06 07:12:48;;;;;;;7.40;6.80;;;10.50;99.90;;;;;;5064819;28;20500;-67
2022/04/06 07:15:14;;;;;;;6.40;5.80;;;10.50;99.90;;;;;;5067569;28;20941;-68
2022/04/06 07:17:40;;;;;;;6.23;5.73;;;10.60;99.90;;;;;;5066610;28;20462;-69
2022/04/06 07:20:06;;;;;;;5.90;5.40;;;10.70;99.90;;;;;;5065556;28;20196;-66
2022/04/06 07:22:31;;;;;;;6.47;5.97;;;10.80;99.90;;;;;;5072257;28;20276;-68
2022/04/06 07:24:57;;;;;;;8.40;7.23;;;10.80;99.90;;;;;;5057729;28;20519;-68
2022/04/06 07:27:22;;;;;;;5.20;4.80;;;10.80;99.90;;;;;;5062844;28;20232;-68
2022/04/06 07:29:48;;;;;;;5.27;4.87;;;10.80;99.90;;;;;;5060043;28;20170;-67
2022/04/06 07:32:13;;;;;;;5.47;5.07;;;11.00;99.90;;;;;;5064284;28;20242;-67
2022/04/06 07:34:39;;;;;;;8.93;5.03;;;11.00;99.90;;;;;;5064097;28;20188;-73
2022/04/06 07:37:04;;;;;;;7.00;6.40;;;11.00;99.90;;;;;;5057723;28;20239;-67
2022/04/06 07:39:30;;;;;;;5.33;4.60;;;11.10;99.90;;;;;;5064879;28;20532;-66
2022/04/06 07:41:56;;;;;;;6.90;6.30;;;11.10;99.90;;;;;;5063442;28;20231;-70
2022/04/06 07:44:22;;;;;;;4.27;3.97;;;11.20;99.90;;;;;;5059488;28;20886;-67
2022/04/06 07:46:48;;;;;;;9.50;4.27;;;11.30;99.90;;;;;;5057933;28;20546;-70
2022/04/06 07:49:14;;;;;;;4.57;3.70;;;11.40;99.90;;;;;;5063848;28;20518;-68
2022/04/06 07:51:39;;;;;;;4.00;3.70;;;11.60;99.90;;;;;;5061429;28;20177;-68
2022/04/06 07:54:05;;;;;;;4.50;4.10;;;11.90;99.90;;;;;;5062777;28;20715;-68
2022/04/06 07:56:30;;;;;;;4.50;4.00;;;12.30;99.90;;;;;;5061158;28;20306;-67
2022/04/06 07:58:56;;;;;;;3.07;2.87;;;12.70;99.90;;;;;;5058904;28;20188;-67
2022/04/06 08:01:21;;;;;;;3.70;3.40;;;13.10;99.90;;;;;;5060406;28;20185;-67
2022/04/06 08:03:47;;;;;;;4.43;3.20;;;13.10;99.90;;;;;;5060044;28;20211;-68
2022/04/06 08:06:12;;;;;;;4.43;2.77;;;13.30;99.90;;;;;;5056963;28;20220;-68
2022/04/06 08:08:38;;;;;;;3.57;3.17;;;13.60;99.90;;;;;;5060363;28;20263;-68
2022/04/06 08:11:05;;;;;;;4.00;3.40;;;13.80;99.90;;;;;;5058906;28;20204;-68
2022/04/06 08:13:31;;;;;;;2.53;2.40;;;13.60;99.90;;;;;;5061610;28;20201;-68
2022/04/06 08:15:58;;;;;;;2.97;2.77;;;13.20;99.90;;;;;;5055172;28;20451;-68
2022/04/06 08:18:24;;;;;;;3.50;3.20;;;12.90;99.90;;;;;;5059900;28;20511;-67
2022/04/06 08:20:49;;;;;;;3.00;2.80;;;12.70;99.90;;;;;;5059295;28;20518;-67
2022/04/06 08:23:17;;;;;;;2.90;2.67;;;12.80;99.90;;;;;;5057861;28;20188;-68
2022/04/06 08:25:43;;;;;;;3.47;3.17;;;12.80;99.90;;;;;;5056512;28;20626;-68
2022/04/06 08:28:10;;;;;;;3.23;2.93;;;12.70;99.90;;;;;;5054928;28;20467;-68
2022/04/06 08:30:40;;;;;;;3.00;2.80;;;12.60;99.90;;;;;;5061024;28;20446;-68
2022/04/06 08:33:06;;;;;;;3.40;3.00;;;12.40;99.90;;;;;;5058532;28;20493;-68
2022/04/06 08:35:31;;;;;;;2.53;2.33;;;12.60;99.90;;;;;;5057191;28;20476;-68
2022/04/06 08:37:57;;;;;;;3.77;3.47;;;12.50;99.90;;;;;;5059005;28;20440;-68
2022/04/06 08:40:23;;;;;;;3.23;3.00;;;12.60;99.90;;;;;;5055532;28;20188;-68
2022/04/06 08:42:48;;;;;;;2.90;2.23;;;12.60;99.90;;;;;;5064804;28;20184;-68
2022/04/06 08:45:16;;;;;;;1.50;1.40;;;12.70;99.90;;;;;;5054785;28;20929;-68
2022/04/06 08:47:42;;;;;;;1.87;1.67;;;12.80;99.90;;;;;;5060806;28;20200;-68
2022/04/06 08:50:07;;;;;;;1.50;1.40;;;12.70;99.90;;;;;;5058694;28;20427;-67
2022/04/06 08:52:34;;;;;;;1.93;1.30;;;12.80;99.90;;;;;;5053570;28;20173;-68
2022/04/06 08:55:00;;;;;;;3.13;1.67;;;12.80;99.90;;;;;;5058930;28;20627;-68
2022/04/06 08:57:27;;;;;;;3.43;1.40;;;13.00;99.90;;;;;;5055489;28;20506;-68
2022/04/06 08:59:53;;;;;;;1.37;1.27;;;13.20;99.90;;;;;;5056991;28;21470;-68
2022/04/06 09:02:20;;;;;;;1.23;1.17;;;13.50;99.90;;;;;;5058022;28;20447;-68
2022/04/06 09:04:53;;;;;;;3.00;1.60;;;14.00;99.90;;;;;;5055043;28;20461;-68
2022/04/06 09:07:21;;;;;;;2.07;1.20;;;14.40;99.90;;;;;;5060171;28;20550;-68
2022/04/06 09:09:54;;;;;;;1.20;1.10;;;14.50;99.90;;;;;;5056164;28;20438;-68
2022/04/06 09:12:23;;;;;;;1.67;1.40;;;14.70;99.90;;;;;;5059820;28;20444;-68
2022/04/06 09:15:09;;;;;;;1.60;1.37;;;15.00;99.90;;;;;;5061554;28;20439;-68
2022/04/06 09:17:46;;;;;;;1.60;1.50;;;15.00;99.90;;;;;;5057531;28;21038;-68
2022/04/06 09:20:19;;;;;;;1.00;1.00;;;15.00;99.90;;;;;;5059028;28;20500;-68
2022/04/06 09:22:44;;;;;;;2.20;2.00;;;15.10;99.90;;;;;;5057590;28;20457;-68
2022/04/06 09:25:10;;;;;;;1.63;1.53;;;15.40;99.90;;;;;;5062257;28;20945;-68
2022/04/06 09:27:39;;;;;;;3.43;1.20;;;15.60;99.90;;;;;;5063095;28;20211;-68
2022/04/06 09:30:07;;;;;;;5.20;1.60;;;15.50;99.90;;;;;;5058512;28;20188;-68
2022/04/06 09:32:33;;;;;;;3.40;2.77;;;15.80;99.90;;;;;;5064259;28;20525;-68
2022/04/06 09:34:58;;;;;;;1.20;1.10;;;16.20;99.90;;;;;;5056421;28;20570;-68
2022/04/06 09:37:29;;;;;;;1.60;1.20;;;17.30;99.90;;;;;;5055671;28;20588;-68
2022/04/06 09:39:56;;;;;;;1.57;1.30;;;17.30;99.90;;;;;;5067296;28;20552;-68
2022/04/06 09:42:24;;;;;;;1.37;1.27;;;16.70;99.90;;;;;;5055529;28;20963;-68
2022/04/06 09:47:51;;;;;;;0.90;0.90;;;15.80;99.90;;;;;;5057335;28;20567;-69
2022/04/06 09:50:22;;;;;;;1.47;1.00;;;16.00;99.90;;;;;;5053934;28;20469;-69
2022/04/06 09:52:53;;;;;;;2.40;1.07;;;16.30;99.90;;;;;;5055872;28;20431;-69
2022/04/06 09:55:20;;;;;;;6.43;3.13;;;16.30;99.90;;;;;;5056972;28;20445;-69
2022/04/06 09:57:50;;;;;;;1.40;1.30;;;16.20;99.90;;;;;;5058180;28;20686;-69
2022/04/06 10:00:21;;;;;;;1.17;1.07;;;16.40;99.90;;;;;;5055645;28;20440;-69
2022/04/06 10:03:08;;;;;;;1.13;1.07;;;16.40;99.90;;;;;;5060318;28;20447;-69
2022/04/06 10:05:35;;;;;;;1.27;1.20;;;16.50;99.90;;;;;;5057849;28;20959;-69
2022/04/06 10:08:05;;;;;;;1.30;1.20;;;16.30;99.90;;;;;;5058046;28;20471;-69
2022/04/06 10:10:32;;;;;;;1.67;0.93;;;16.10;99.90;;;;;;5062158;28;20448;-69
2022/04/06 10:12:58;;;;;;;1.07;0.97;;;16.10;99.90;;;;;;5061681;28;20431;-69
2022/04/06 10:15:26;;;;;;;1.10;1.10;;;15.80;99.90;;;;;;5061820;28;20626;-69
2022/04/06 10:17:53;;;;;;;1.30;1.20;;;15.40;99.90;;;;;;5058462;28;20442;-69
2022/04/06 10:20:28;;;;;;;1.77;1.67;;;15.20;99.90;;;;;;5065952;28;20976;-69
2022/04/06 10:23:16;;;;;;;0.80;0.70;;;15.40;99.90;;;;;;5058522;28;20442;-69
2022/04/06 10:25:47;;;;;;;0.90;0.90;;;15.60;99.90;;;;;;5056107;28;20511;-69
2022/04/06 10:28:14;;;;;;;1.90;1.80;;;15.80;99.90;;;;;;5059640;28;20472;-69
2022/04/06 10:30:39;;;;;;;0.80;0.80;;;15.90;99.90;;;;;;5062495;28;20450;-69
2022/04/06 10:33:20;;;;;;;1.00;0.93;;;15.70;99.90;;;;;;5059782;28;20934;-68
2022/04/06 10:35:46;;;;;;;1.37;1.10;;;15.50;99.90;;;;;;5058535;28;20548;-68
2022/04/06 10:38:14;;;;;;;1.30;1.20;;;15.60;99.90;;;;;;5058001;28;20454;-68
2022/04/06 10:40:45;;;;;;;2.30;1.03;;;15.90;99.90;;;;;;5058424;28;20823;-69
2022/04/06 10:43:43;;;;;;;1.57;1.47;;;16.50;99.90;;;;;;5066285;28;20443;-68
2022/04/06 10:46:14;;;;;;;1.33;1.20;;;17.40;99.70;;;;;;5064343;28;20537;-68
2022/04/06 10:49:06;;;;;;;1.30;1.20;;;18.80;96.90;;;;;;5061273;28;20442;-68
2022/04/06 10:51:34;;;;;;;1.57;1.47;;;18.50;96.60;;;;;;5058530;28;20431;-68
2022/04/06 10:54:20;;;;;;;1.93;1.33;;;18.80;96.50;;;;;;5056578;28;20443;-68
2022/04/06 10:56:52;;;;;;;2.00;1.80;;;18.50;96.40;;;;;;5056473;28;20486;-68
2022/04/06 10:59:27;;;;;;;3.00;2.23;;;18.40;96.10;;;;;;5059933;28;20554;-69
2022/04/06 11:02:19;;;;;;;4.53;2.40;;;18.40;95.90;;;;;;5066685;28;20438;-68
2022/04/06 11:04:46;;;;;;;1.40;1.30;;;19.90;94.40;;;;;;5061561;28;20438;-71
2022/04/06 11:07:15;;;;;;;1.50;1.40;;;20.70;91.60;;;;;;5062432;28;20474;-69
2022/04/06 11:12:35;;;;;;;1.60;1.50;;;21.50;86.90;;;;;;5056738;28;20449;-68
2022/04/06 11:15:00;;;;;;;2.13;1.93;;;21.90;87.10;;;;;;5054145;28;20471;-70
2022/04/06 11:17:32;;;;;;;1.33;1.23;;;23.40;79.30;;;;;;5058984;28;20493;-68
2022/04/06 11:19:59;;;;;;;1.83;1.37;;;23.20;74.50;;;;;;5062818;28;20191;-69
2022/04/06 11:22:25;;;;;;;1.30;1.20;;;23.90;73.10;;;;;;5062617;28;20858;-69
2022/04/06 11:24:52;;;;;;;1.07;1.03;;;25.00;68.00;;;;;;5067457;28;20482;-69
2022/04/06 11:27:27;;;;;;;2.47;2.27;;;26.00;61.80;;;;;;5056627;28;20467;-69
2022/04/06 11:30:12;;;;;;;1.17;1.07;;;25.40;59.20;;;;;;5066883;28;20867;-67
2022/04/06 11:32:38;;;;;;;1.53;1.43;;;26.20;58.30;;;;;;5068336;28;20740;-69
2022/04/06 11:35:06;;;;;;;1.40;1.13;;;25.40;57.80;;;;;;5069737;28;20480;-69
2022/04/06 11:37:38;;;;;;;2.33;2.10;;;24.10;58.40;;;;;;5065584;28;20462;-69
2022/04/06 11:40:04;;;;;;;1.60;1.40;;;24.10;59.50;;;;;;5061176;28;20436;-69
2022/04/06 11:42:30;;;;;;;2.67;1.40;;;23.50;59.40;;;;;;5058296;28;20447;-69
2022/04/06 11:44:56;;;;;;;1.10;1.07;;;23.40;60.70;;;;;;5059015;28;20470;-67
2022/04/06 11:47:36;;;;;;;2.47;1.37;;;24.50;58.50;;;;;;5057781;28;20239;-69
2022/04/06 11:50:10;;;;;;;1.20;1.10;;;22.70;60.60;;;;;;5056243;28;20435;-69
2022/04/06 11:52:40;;;;;;;1.53;1.30;;;21.20;63.00;;;;;;5064332;28;20879;-66
2022/04/06 11:55:07;;;;;;;0.90;0.90;;;20.30;66.50;;;;;;5061387;28;20435;-69
2022/04/06 11:57:37;;;;;;;1.50;1.40;;;19.80;68.50;;;;;;5065908;28;20478;-69
2022/04/06 12:00:05;;;;;;;1.57;1.47;;;19.40;70.60;;;;;;5062591;28;20534;-68
2022/04/06 12:02:47;;;;;;;1.03;0.93;;;19.30;72.60;;;;;;5061094;28;20468;-68
2022/04/06 12:05:13;;;;;;;1.47;1.37;;;18.70;74.30;;;;;;5060874;28;20439;-68
2022/04/06 12:07:38;;;;;;;1.77;1.10;;;18.40;76.00;;;;;;5062826;28;20469;-69
2022/04/06 12:10:04;;;;;;;1.50;1.37;;;18.40;74.30;;;;;;5061362;28;20185;-69
2022/04/06 12:12:30;;;;;;;3.47;2.40;;;20.60;71.10;;;;;;5061617;28;20545;-69
2022/04/06 12:14:56;;;;;;;1.40;1.20;;;22.80;63.90;;;;;;5060933;28;20551;-66
2022/04/06 12:17:22;;;;;;;1.47;1.37;;;25.10;59.20;;;;;;5055779;28;20451;-70
2022/04/06 12:19:48;;;;;;;1.13;1.03;;;25.40;55.50;;;;;;5056872;28;20439;-71
2022/04/06 12:22:14;;;;;;;0.87;0.83;;;25.40;55.40;;;;;;5062216;28;20964;-67
2022/04/06 12:24:43;;;;;;;1.13;1.00;;;25.60;54.70;;;;;;5058502;28;20438;-69
2022/04/06 12:27:09;;;;;;;1.60;1.30;;;26.10;53.80;;;;;;5062936;28;20468;-69
2022/04/06 12:29:36;;;;;;;1.10;0.80;;;27.80;52.00;;;;;;5067461;28;20431;-66
2022/04/06 12:32:03;;;;;;;3.67;1.20;;;27.20;51.00;;;;;;5063718;28;20226;-66
2022/04/06 12:34:36;;;;;;;1.20;1.03;;;26.60;51.30;;;;;;5066306;28;20446;-66
2022/04/06 12:39:50;;;;;;;0.80;0.80;;;27.80;48.20;;;;;;5056934;28;20441;-66
2022/04/06 12:42:15;;;;;;;1.53;0.93;;;27.80;47.60;;;;;;5068700;28;20435;-66
2022/04/06 12:44:55;;;;;;;1.20;1.10;;;29.00;46.40;;;;;;5064301;28;20946;-66
2022/04/06 12:47:23;;;;;;;1.90;1.80;;;28.90;45.70;;;;;;5060683;28;20209;-66
2022/04/06 12:49:48;;;;;;;2.60;2.40;;;28.90;46.20;;;;;;5060711;28;21016;-66
2022/04/06 12:52:15;;;;;;;1.40;1.20;;;28.80;45.40;;;;;;5065017;28;20467;-66
2022/04/06 12:54:47;;;;;;;1.57;1.20;;;29.20;44.30;;;;;;5063100;28;20219;-66
2022/04/06 12:57:17;;;;;;;2.13;1.20;;;29.80;43.20;;;;;;5052678;28;20467;-69
2022/04/06 13:00:08;;;;;;;1.77;1.00;;;29.10;43.50;;;;;;5063215;28;20435;-68
2022/04/06 13:02:36;;;;;;;3.43;0.90;;;28.20;43.90;;;;;;5069088;28;20945;-66
2022/04/06 13:05:10;;;;;;;0.80;0.80;;;28.10;44.20;;;;;;5063335;28;20467;-66